createdAt,value
2018-12-19T00:00:46.627Z,4.20
2018-12-19T00:03:53.199Z,4.15
2018-12-19T00:06:59.730Z,4.00
2018-12-19T00:10:05.046Z,3.42
2018-12-19T00:13:14.303Z,5.10
2018-12-19T00:16:18.858Z,4.45
2018-12-19T00:19:23.454Z,4.62
2018-12-19T00:22:28.006Z,4.60
2018-12-19T00:25:32.502Z,3.87
2018-12-19T00:28:39.197Z,4.37
2018-12-19T00:31:45.978Z,4.47
2018-12-19T00:34:52.849Z,4.17
2018-12-19T00:37:57.382Z,4.15
2018-12-19T00:41:02.037Z,4.28
2018-12-19T00:44:06.618Z,4.03
2018-12-19T00:47:11.182Z,4.08
2018-12-19T00:50:15.674Z,4.22
2018-12-19T00:53:20.270Z,4.20
2018-12-19T00:56:25.870Z,3.98
2018-12-19T00:59:30.421Z,3.92
2018-12-19T01:02:35.012Z,4.20
2018-12-19T01:05:39.650Z,4.10
2018-12-19T01:08:44.177Z,4.03
2018-12-19T01:11:49.105Z,4.25
2018-12-19T01:14:53.622Z,4.22
2018-12-19T01:17:58.221Z,4.40
2018-12-19T01:21:03.079Z,4.20
2018-12-19T01:24:07.749Z,4.05
2018-12-19T01:27:12.246Z,4.22
2018-12-19T01:30:16.894Z,5.28
2018-12-19T01:33:22.422Z,4.60
2018-12-19T01:36:26.982Z,4.92
2018-12-19T01:39:31.690Z,5.12
2018-12-19T01:42:36.273Z,5.00
2018-12-19T01:45:40.858Z,5.17
2018-12-19T01:48:45.418Z,4.83
2018-12-19T01:51:50.346Z,5.40
2018-12-19T01:54:55.205Z,5.83
2018-12-19T01:57:59.759Z,5.63
2018-12-19T02:01:04.313Z,5.90
2018-12-19T02:04:08.816Z,5.93
2018-12-19T02:07:13.387Z,5.77
2018-12-19T02:10:17.975Z,5.57
2018-12-19T02:13:22.518Z,5.93
2018-12-19T02:16:27.018Z,5.90
2018-12-19T02:19:31.587Z,6.27
2018-12-19T02:22:36.073Z,5.55
2018-12-19T02:25:40.642Z,6.20
2018-12-19T02:28:45.230Z,6.27
2018-12-19T02:31:49.754Z,6.65
2018-12-19T02:34:55.415Z,6.57
2018-12-19T02:37:59.930Z,6.40
2018-12-19T02:41:04.458Z,6.33
2018-12-19T02:44:09.017Z,6.10
2018-12-19T02:47:13.509Z,6.42
2018-12-19T02:50:18.040Z,6.57
2018-12-19T02:53:22.566Z,6.67
2018-12-19T02:56:27.086Z,7.03
2018-12-19T02:59:31.623Z,7.93
2018-12-19T03:02:36.142Z,7.28
2018-12-19T03:05:40.673Z,6.80
2018-12-19T03:08:45.191Z,7.35
2018-12-19T03:11:49.719Z,6.90
2018-12-19T03:14:54.258Z,6.80
2018-12-19T03:17:58.775Z,7.43
2018-12-19T03:21:03.319Z,7.57
2018-12-19T03:24:08.173Z,7.47
2018-12-19T03:27:12.682Z,7.20
2018-12-19T03:30:17.212Z,7.85
2018-12-19T03:33:22.070Z,7.23
2018-12-19T03:36:26.642Z,7.75
2018-12-19T03:39:32.017Z,7.50
2018-12-19T03:42:36.754Z,7.73
2018-12-19T03:45:41.269Z,7.07
2018-12-19T03:48:50.870Z,7.92
2018-12-19T03:51:55.482Z,8.20
2018-12-19T03:55:00.185Z,8.20
2018-12-19T03:58:07.585Z,7.40
2018-12-19T04:01:13.146Z,11.53
2018-12-19T04:04:18.310Z,11.40
2018-12-19T04:07:23.903Z,10.70
2018-12-19T04:10:28.493Z,10.40
2018-12-19T04:13:33.457Z,10.77
2018-12-19T04:16:38.585Z,9.70
2018-12-19T04:19:43.229Z,8.60
2018-12-19T04:22:49.807Z,8.20
2018-12-19T04:25:57.145Z,8.07
2018-12-19T04:29:02.034Z,7.33
2018-12-19T04:32:06.445Z,7.63
2018-12-19T04:35:11.881Z,7.37
2018-12-19T04:38:17.191Z,7.27
2018-12-19T04:41:21.866Z,7.50
2018-12-19T04:44:26.455Z,7.90
2018-12-19T04:47:31.598Z,7.73
2018-12-19T04:50:36.671Z,7.77
2018-12-19T04:53:41.402Z,7.50
2018-12-19T04:56:46.340Z,7.72
2018-12-19T04:59:51.274Z,7.40
2018-12-19T05:02:56.116Z,7.93
2018-12-19T05:06:01.520Z,7.65
2018-12-19T05:09:08.339Z,8.27
2018-12-19T05:12:13.487Z,8.03
2018-12-19T05:15:18.014Z,7.63
2018-12-19T05:18:22.630Z,8.15
2018-12-19T05:21:27.495Z,7.30
2018-12-19T05:24:32.911Z,6.90
2018-12-19T05:27:37.652Z,7.10
2018-12-19T05:30:42.506Z,6.67
2018-12-19T05:33:47.529Z,6.35
2018-12-19T05:36:52.588Z,5.90
2018-12-19T05:39:57.820Z,6.20
2018-12-19T05:43:03.071Z,5.85
2018-12-19T05:46:07.888Z,6.95
2018-12-19T05:49:13.217Z,5.90
2018-12-19T05:52:19.438Z,5.85
2018-12-19T05:55:24.366Z,5.83
2018-12-19T05:58:28.978Z,5.83
2018-12-19T06:01:33.877Z,5.83
2018-12-19T06:04:40.483Z,6.20
2018-12-19T06:07:45.832Z,5.62
2018-12-19T06:10:51.326Z,5.97
2018-12-19T06:13:56.087Z,5.80
2018-12-19T06:17:00.775Z,6.10
2018-12-19T06:20:05.925Z,6.10
2018-12-19T06:23:17.173Z,5.97
2018-12-19T06:26:22.078Z,6.22
2018-12-19T06:29:33.010Z,6.17
2018-12-19T06:32:38.235Z,5.95
2018-12-19T06:35:43.574Z,6.10
2018-12-19T06:38:48.721Z,6.10
2018-12-19T06:41:53.351Z,5.87
2018-12-19T06:44:58.363Z,5.83
2018-12-19T06:48:03.006Z,6.20
2018-12-19T06:51:08.015Z,5.87
2018-12-19T06:54:12.665Z,5.80
2018-12-19T06:57:17.500Z,6.53
2018-12-19T07:00:22.559Z,5.50
2018-12-19T07:03:28.066Z,6.10
2018-12-19T07:06:33.136Z,6.47
2018-12-19T07:09:38.260Z,6.72
2018-12-19T07:12:43.113Z,6.08
2018-12-19T07:15:48.135Z,7.00
2018-12-19T07:18:52.782Z,6.30
2018-12-19T07:21:57.485Z,6.60
2018-12-19T07:25:02.366Z,6.58
2018-12-19T07:28:06.943Z,6.80
2018-12-19T07:31:11.914Z,6.70
2018-12-19T07:34:16.514Z,6.62
2018-12-19T07:37:21.575Z,6.28
2018-12-19T07:40:26.482Z,6.15
2018-12-19T07:43:31.444Z,6.12
2018-12-19T07:46:36.983Z,6.80
2018-12-19T07:49:41.927Z,6.60
2018-12-19T07:52:47.280Z,7.00
2018-12-19T07:55:53.318Z,6.45
2018-12-19T07:58:58.357Z,7.08
2018-12-19T08:02:03.500Z,6.83
2018-12-19T08:05:08.246Z,6.60
2018-12-19T08:08:12.949Z,6.33
2018-12-19T08:11:18.029Z,6.80
2018-12-19T08:14:23.533Z,7.03
2018-12-19T08:17:28.788Z,7.00
2018-12-19T08:20:33.822Z,6.92
2018-12-19T08:23:38.659Z,7.28
2018-12-19T08:26:43.342Z,7.40
2018-12-19T08:29:48.119Z,7.42
2018-12-19T08:32:52.963Z,7.50
2018-12-19T08:35:57.582Z,6.70
2018-12-19T08:39:02.541Z,6.97
2018-12-19T08:42:07.549Z,7.30
2018-12-19T08:45:12.382Z,7.25
2018-12-19T08:48:17.134Z,6.37
2018-12-19T08:51:22.077Z,6.78
2018-12-19T08:54:26.898Z,6.60
2018-12-19T08:57:31.728Z,6.97
2018-12-19T09:00:37.178Z,7.17
2018-12-19T09:03:42.266Z,6.47
2018-12-19T09:06:46.829Z,6.97
2018-12-19T09:09:51.453Z,9.63
2018-12-19T09:12:56.074Z,9.45
2018-12-19T09:16:01.484Z,8.67
2018-12-19T09:19:06.041Z,7.75
2018-12-19T09:22:11.375Z,7.40
2018-12-19T09:25:16.445Z,10.95
2018-12-19T09:28:20.969Z,9.78
2018-12-19T09:31:25.481Z,11.15
2018-12-19T09:34:30.022Z,7.92
2018-12-19T09:37:34.554Z,7.47
2018-12-19T09:40:39.053Z,8.20
2018-12-19T09:43:44.609Z,13.88
2018-12-19T09:46:49.228Z,14.87
2018-12-19T09:49:54.981Z,15.38
2018-12-19T09:52:59.626Z,15.72
2018-12-19T09:56:04.245Z,16.32
2018-12-19T09:59:09.045Z,13.13
2018-12-19T10:02:13.757Z,10.75
2018-12-19T10:05:18.346Z,10.28
2018-12-19T10:08:22.878Z,9.30
2018-12-19T10:11:27.495Z,8.45
2018-12-19T10:14:32.039Z,7.75
2018-12-19T10:17:40.957Z,8.08
2018-12-19T10:20:43.137Z,8.98
2018-12-19T10:23:47.662Z,8.03
2018-12-19T10:26:52.441Z,8.18
2018-12-19T10:29:57.415Z,7.72
2018-12-19T10:33:01.955Z,7.58
2018-12-19T10:36:06.484Z,7.10
2018-12-19T10:39:16.197Z,7.80
2018-12-19T10:42:21.107Z,7.30
2018-12-19T10:45:26.880Z,7.03
2018-12-19T10:48:31.453Z,7.22
2018-12-19T10:51:36.391Z,7.55
2018-12-19T10:54:41.521Z,6.85
2018-12-19T10:57:46.314Z,6.37
2018-12-19T11:00:56.203Z,6.58
2018-12-19T11:04:00.726Z,6.50
2018-12-19T11:07:05.518Z,7.10
2018-12-19T11:10:10.566Z,6.60
2018-12-19T11:13:15.250Z,6.72
2018-12-19T11:16:20.580Z,7.10
2018-12-19T11:19:25.086Z,6.50
2018-12-19T11:22:29.623Z,6.60
2018-12-19T11:25:34.249Z,6.45
2018-12-19T11:28:38.776Z,5.75
2018-12-19T11:31:43.867Z,6.40
2018-12-19T11:34:48.494Z,5.60
2018-12-19T11:37:53.768Z,5.92
2018-12-19T11:40:58.538Z,6.35
2018-12-19T11:44:03.257Z,5.75
2018-12-19T11:47:07.773Z,6.10
2018-12-19T11:50:12.578Z,5.78
2018-12-19T11:53:17.159Z,5.55
2018-12-19T11:56:22.523Z,5.55
2018-12-19T11:59:27.012Z,5.10
2018-12-19T12:02:31.670Z,5.12
2018-12-19T12:05:36.171Z,5.15
2018-12-19T12:08:40.747Z,4.87
2018-12-19T12:11:45.839Z,5.45
2018-12-19T12:14:50.934Z,4.92
2018-12-19T12:17:56.329Z,5.37
2018-12-19T12:21:00.894Z,5.50
2018-12-19T12:24:05.491Z,5.05
2018-12-19T12:27:10.467Z,5.55
2018-12-19T12:30:15.054Z,5.60
2018-12-19T12:33:19.610Z,5.33
2018-12-19T12:36:24.792Z,5.47
2018-12-19T12:39:29.575Z,5.17
2018-12-19T12:42:34.186Z,5.42
2018-12-19T12:45:38.749Z,4.80
2018-12-19T12:48:43.350Z,5.20
2018-12-19T12:51:49.579Z,5.25
2018-12-19T12:54:54.432Z,5.53
2018-12-19T12:57:58.986Z,5.20
2018-12-19T13:01:03.581Z,4.60
2018-12-19T13:04:08.358Z,4.97
2018-12-19T13:07:12.958Z,5.17
2018-12-19T13:10:17.513Z,4.67
2018-12-19T13:13:22.105Z,4.72
2018-12-19T13:16:26.701Z,4.85
2018-12-19T13:19:31.250Z,4.80
2018-12-19T13:22:35.810Z,4.97
2018-12-19T13:25:40.299Z,4.83
2018-12-19T13:28:45.210Z,5.03
2018-12-19T13:31:50.130Z,4.95
2018-12-19T13:34:54.966Z,4.55
2018-12-19T13:38:00.958Z,4.83
2018-12-19T13:41:05.550Z,4.80
2018-12-19T13:44:10.134Z,4.83
2018-12-19T13:47:14.697Z,4.72
2018-12-19T13:50:19.298Z,5.22
2018-12-19T13:53:23.894Z,4.87
2018-12-19T13:56:28.430Z,4.85
2018-12-19T13:59:32.986Z,4.83
2018-12-19T14:02:37.586Z,4.80
2018-12-19T14:05:42.171Z,4.50
2018-12-19T14:08:46.950Z,5.15
2018-12-19T14:11:51.793Z,5.03
2018-12-19T14:14:56.303Z,4.60
2018-12-19T14:18:00.867Z,5.00
2018-12-19T14:21:05.474Z,5.20
2018-12-19T14:24:10.066Z,4.90
2018-12-19T14:27:14.631Z,4.22
2018-12-19T14:30:19.218Z,4.58
2018-12-19T14:33:23.894Z,4.90
2018-12-19T14:36:28.621Z,5.22
2018-12-19T14:39:33.130Z,5.55
2018-12-19T14:42:37.778Z,5.78
2018-12-19T14:45:42.506Z,5.70
2018-12-19T14:48:48.053Z,5.78
2018-12-19T14:51:52.709Z,6.00
2018-12-19T14:54:57.293Z,5.78
2018-12-19T14:58:02.499Z,5.28
2018-12-19T15:01:07.082Z,6.30
2018-12-19T15:04:11.610Z,5.87
2018-12-19T15:07:16.525Z,5.97
2018-12-19T15:10:21.075Z,5.95
2018-12-19T15:13:25.990Z,5.60
2018-12-19T15:16:30.539Z,6.17
2018-12-19T15:19:35.578Z,5.60
2018-12-19T15:22:40.102Z,6.90
2018-12-19T15:25:45.277Z,7.08
2018-12-19T15:28:49.866Z,6.45
2018-12-19T15:31:54.994Z,5.75
2018-12-19T15:34:59.537Z,7.55
2018-12-19T15:38:04.169Z,7.35
2018-12-19T15:41:08.678Z,6.00
2018-12-19T15:44:13.318Z,6.67
2018-12-19T15:47:18.586Z,5.95
2018-12-19T15:50:23.189Z,6.03
2018-12-19T15:53:27.719Z,6.22
2018-12-19T15:56:32.242Z,6.62
2018-12-19T15:59:36.709Z,7.17
2018-12-19T16:02:41.234Z,11.12
2018-12-19T16:05:46.270Z,10.32
2018-12-19T16:08:50.798Z,8.78
2018-12-19T16:11:55.326Z,8.63
2018-12-19T16:14:59.774Z,7.03
2018-12-19T16:18:04.353Z,6.70
2018-12-19T16:21:08.885Z,6.85
2018-12-19T16:24:13.421Z,6.70
2018-12-19T16:27:18.050Z,6.33
2018-12-19T16:30:22.581Z,6.05
2018-12-19T16:33:27.093Z,6.53
2018-12-19T16:36:31.640Z,6.05
2018-12-19T16:39:36.144Z,6.05
2018-12-19T16:42:46.061Z,5.95
2018-12-19T16:45:47.374Z,6.37
2018-12-19T16:48:51.889Z,6.10
2018-12-19T16:51:56.397Z,5.90
2018-12-19T16:55:00.945Z,6.55
2018-12-19T16:58:05.469Z,5.72
2018-12-19T17:01:09.978Z,6.15
2018-12-19T17:04:14.526Z,6.83
2018-12-19T17:07:19.034Z,5.85
2018-12-19T17:10:23.569Z,5.70
2018-12-19T17:13:28.097Z,5.72
2018-12-19T17:16:32.626Z,5.30
2018-12-19T17:19:37.078Z,6.05
2018-12-19T17:22:41.661Z,5.47
2018-12-19T17:25:47.742Z,5.35
2018-12-19T17:28:52.469Z,5.30
2018-12-19T17:31:56.997Z,5.40
2018-12-19T17:35:01.538Z,5.00
2018-12-19T17:38:06.034Z,5.17
2018-12-19T17:41:10.565Z,5.40
2018-12-19T17:44:15.101Z,5.22
2018-12-19T17:47:19.765Z,5.00
2018-12-19T17:50:24.342Z,5.35
2018-12-19T17:53:28.889Z,5.50
2018-12-19T17:56:33.418Z,5.50
2018-12-19T17:59:38.962Z,5.47
2018-12-19T18:02:43.493Z,5.30
2018-12-19T18:05:49.043Z,5.62
2018-12-19T18:08:53.567Z,5.20
2018-12-19T18:11:58.093Z,5.45
2018-12-19T18:15:02.617Z,5.00
2018-12-19T18:18:07.149Z,5.03
2018-12-19T18:21:11.708Z,5.58
2018-12-19T18:24:16.304Z,5.03
2018-12-19T18:27:20.842Z,5.55
2018-12-19T18:30:25.353Z,5.35
2018-12-19T18:33:29.885Z,4.95
2018-12-19T18:36:34.405Z,5.40
2018-12-19T18:39:38.917Z,4.97
2018-12-19T18:42:43.448Z,5.15
2018-12-19T18:45:47.989Z,4.95
2018-12-19T18:48:52.500Z,5.28
2018-12-19T18:51:57.154Z,5.50
2018-12-19T18:55:01.750Z,5.20
2018-12-19T18:58:06.377Z,5.20
2018-12-19T19:01:10.909Z,5.53
2018-12-19T19:04:15.573Z,4.90
2018-12-19T19:07:20.201Z,5.22
2018-12-19T19:10:24.721Z,4.87
2018-12-19T19:13:29.234Z,4.95
2018-12-19T19:16:33.761Z,5.03
2018-12-19T19:19:38.521Z,5.33
2018-12-19T19:22:43.121Z,5.12
2018-12-19T19:25:47.665Z,5.00
2018-12-19T19:28:52.159Z,5.30
2018-12-19T19:31:56.736Z,4.85
2018-12-19T19:35:01.337Z,5.12
2018-12-19T19:38:05.897Z,5.20
2018-12-19T19:41:10.677Z,5.10
2018-12-19T19:44:15.245Z,5.65
2018-12-19T19:47:20.766Z,4.70
2018-12-19T19:50:25.310Z,4.60
2018-12-19T19:53:29.817Z,4.92
2018-12-19T19:56:34.358Z,4.65
2018-12-19T19:59:38.869Z,4.53
2018-12-19T20:02:43.423Z,4.60
2018-12-19T20:05:47.922Z,4.28
2018-12-19T20:08:52.461Z,4.55
2018-12-19T20:11:56.958Z,4.65
2018-12-19T20:15:01.638Z,5.08
2018-12-19T20:18:07.603Z,4.85
2018-12-19T20:21:12.226Z,4.20
2018-12-19T20:24:16.957Z,5.08
2018-12-19T20:27:21.645Z,4.37
2018-12-19T20:30:26.458Z,4.80
2018-12-19T20:33:31.025Z,4.97
2018-12-19T20:36:35.521Z,4.53
2018-12-19T20:39:40.101Z,4.60
2018-12-19T20:42:44.797Z,4.92
2018-12-19T20:45:49.341Z,4.45
2018-12-19T20:48:53.833Z,4.78
2018-12-19T20:51:58.394Z,4.45
2018-12-19T20:55:02.889Z,4.78
2018-12-19T20:58:07.442Z,5.00
2018-12-19T21:01:12.292Z,5.03
2018-12-19T21:04:16.826Z,5.10
2018-12-19T21:07:21.401Z,5.30
2018-12-19T21:10:25.987Z,4.90
2018-12-19T21:13:30.573Z,5.17
2018-12-19T21:16:40.293Z,5.10
2018-12-19T21:19:44.845Z,5.15
2018-12-19T21:22:49.881Z,5.45
2018-12-19T21:25:54.546Z,5.45
2018-12-19T21:28:59.134Z,5.22
2018-12-19T21:32:03.670Z,5.33
2018-12-19T21:35:09.305Z,5.20
2018-12-19T21:38:14.468Z,5.03
2018-12-19T21:41:19.122Z,5.60
2018-12-19T21:44:23.611Z,5.25
2018-12-19T21:47:28.185Z,4.90
2018-12-19T21:50:32.852Z,5.53
2018-12-19T21:53:37.576Z,5.70
2018-12-19T21:56:42.140Z,5.72
2018-12-19T21:59:46.730Z,5.37
2018-12-19T22:02:51.554Z,5.97
2018-12-19T22:05:56.125Z,6.22
2018-12-19T22:09:01.006Z,5.50
2018-12-19T22:12:05.663Z,6.05
2018-12-19T22:15:10.184Z,5.85
2018-12-19T22:18:20.063Z,5.97
2018-12-19T22:21:25.097Z,6.15
2018-12-19T22:24:29.706Z,6.03
2018-12-19T22:27:34.238Z,5.87
2018-12-19T22:30:38.745Z,7.10
2018-12-19T22:33:43.291Z,6.72
2018-12-19T22:36:48.434Z,6.75
2018-12-19T22:39:53.062Z,6.83
2018-12-19T22:42:58.330Z,6.78
2018-12-19T22:46:02.910Z,5.40
2018-12-19T22:49:08.232Z,5.50
2018-12-19T22:52:12.806Z,9.98
2018-12-19T22:55:17.700Z,11.85
2018-12-19T22:58:22.473Z,12.30
2018-12-19T23:01:32.759Z,10.25
2018-12-19T23:04:37.364Z,8.30
2018-12-19T23:07:42.157Z,8.13
2018-12-19T23:10:46.711Z,7.30
2018-12-19T23:13:51.414Z,6.83
2018-12-19T23:17:06.334Z,6.90
2018-12-19T23:20:16.818Z,6.55
2018-12-19T23:23:27.051Z,6.37
2018-12-19T23:26:37.280Z,6.83
2018-12-19T23:29:42.984Z,6.65
2018-12-19T23:32:48.962Z,6.22
2018-12-19T23:35:53.521Z,6.65
2018-12-19T23:38:58.218Z,6.70
2018-12-19T23:42:02.790Z,7.22
2018-12-19T23:45:07.560Z,7.00
2018-12-19T23:48:12.312Z,7.03
2018-12-19T23:51:16.890Z,7.45
2018-12-19T23:54:22.769Z,6.85
2018-12-19T23:57:28.090Z,6.97
